createdAt,value
2022-11-30T00:00:06.475Z,99813.69
2022-11-30T00:02:34.662Z,99817.34
2022-11-30T00:05:02.791Z,99818.34
2022-11-30T00:07:32.748Z,99821.19
2022-11-30T00:10:00.875Z,99823.56
2022-11-30T00:12:30.383Z,99822.44
2022-11-30T00:14:58.745Z,99828.00
2022-11-30T00:17:26.958Z,99822.19
2022-11-30T00:19:54.971Z,99817.59
2022-11-30T00:22:23.022Z,99814.09
2022-11-30T00:24:52.427Z,99818.66
2022-11-30T00:27:20.559Z,99825.28
2022-11-30T00:29:48.647Z,99820.38
2022-11-30T00:32:16.669Z,99809.53
2022-11-30T00:34:44.951Z,99816.19
2022-11-30T00:37:13.308Z,99814.75
2022-11-30T00:39:41.323Z,99817.22
2022-11-30T00:42:10.845Z,99814.53
2022-11-30T00:44:38.985Z,99806.81
2022-11-30T00:47:07.198Z,99811.13
2022-11-30T00:49:35.329Z,99812.38
2022-11-30T00:52:03.753Z,99814.75
2022-11-30T00:54:31.734Z,99809.31
2022-11-30T00:56:59.754Z,99809.94
2022-11-30T00:59:29.174Z,99804.75
2022-11-30T01:01:57.130Z,99809.38
2022-11-30T01:04:25.190Z,99810.31
2022-11-30T01:06:53.367Z,99811.75
2022-11-30T01:09:21.379Z,99806.34
2022-11-30T01:11:49.648Z,99802.41
2022-11-30T01:14:17.795Z,99808.56
2022-11-30T01:16:49.699Z,99811.91
2022-11-30T01:19:20.174Z,99817.75
2022-11-30T01:24:33.989Z,99809.06
2022-11-30T01:27:01.970Z,99813.81
2022-11-30T01:29:30.058Z,99810.81
2022-11-30T01:31:59.500Z,99803.38
2022-11-30T01:34:27.536Z,99806.38
2022-11-30T01:36:55.563Z,99804.34
2022-11-30T01:39:23.670Z,99804.97
2022-11-30T01:41:51.686Z,99801.00
2022-11-30T01:44:54.211Z,99800.06
2022-11-30T01:47:31.399Z,99795.31
2022-11-30T01:50:05.611Z,99791.97
2022-11-30T01:52:37.869Z,99793.25
2022-11-30T01:55:15.780Z,99794.81
2022-11-30T01:57:47.953Z,99790.72
2022-11-30T02:00:17.410Z,99791.63
2022-11-30T02:03:01.061Z,99792.13
2022-11-30T02:05:30.309Z,99792.78
2022-11-30T02:07:58.753Z,99791.22
2022-11-30T02:10:29.846Z,99782.34
2022-11-30T02:13:17.245Z,99787.22
2022-11-30T02:15:54.323Z,99784.69
2022-11-30T02:18:33.153Z,99788.16
2022-11-30T02:21:11.655Z,99782.28
2022-11-30T02:24:07.489Z,99780.41
2022-11-30T02:26:48.331Z,99781.06
2022-11-30T02:29:24.919Z,99791.00
2022-11-30T02:31:58.815Z,99790.53
2022-11-30T02:34:29.614Z,99790.38
2022-11-30T02:37:00.292Z,99792.41
2022-11-30T02:39:28.373Z,99785.00
2022-11-30T02:41:56.414Z,99793.91
2022-11-30T02:44:26.664Z,99788.53
2022-11-30T02:47:09.327Z,99799.28
2022-11-30T02:49:44.148Z,99803.53
2022-11-30T02:52:13.955Z,99796.56
2022-11-30T02:54:42.172Z,99799.06
2022-11-30T02:57:11.410Z,99797.50
2022-11-30T02:59:41.336Z,99802.41
2022-11-30T03:02:09.490Z,99798.91
2022-11-30T03:04:37.599Z,99803.19
2022-11-30T03:07:05.675Z,99795.00
2022-11-30T03:09:33.810Z,99796.72
2022-11-30T03:12:01.841Z,99801.44
2022-11-30T03:14:29.912Z,99802.25
2022-11-30T03:16:59.264Z,99801.31
2022-11-30T03:19:27.464Z,99802.88
2022-11-30T03:21:55.596Z,99807.16
2022-11-30T03:24:23.610Z,99803.81
2022-11-30T03:26:51.659Z,99805.84
2022-11-30T03:29:20.136Z,99796.03
2022-11-30T03:31:48.173Z,99795.84
2022-11-30T03:34:17.686Z,99798.88
2022-11-30T03:36:45.777Z,99806.16
2022-11-30T03:39:13.833Z,99806.16
2022-11-30T03:41:41.854Z,99805.38
2022-11-30T03:44:10.170Z,99802.50
2022-11-30T03:46:38.287Z,99810.13
2022-11-30T03:49:06.527Z,99810.41
2022-11-30T03:51:36.290Z,99811.41
2022-11-30T03:54:04.516Z,99813.63
2022-11-30T03:56:32.685Z,99804.72
2022-11-30T03:59:00.748Z,99807.56
2022-11-30T04:01:29.011Z,99805.50
2022-11-30T04:03:58.085Z,99804.53
2022-11-30T04:06:26.353Z,99810.72
2022-11-30T04:08:55.784Z,99810.72
2022-11-30T04:11:23.849Z,99817.69
2022-11-30T04:13:52.074Z,99817.22
2022-11-30T04:16:20.207Z,99813.00
2022-11-30T04:18:48.807Z,99816.19
2022-11-30T04:21:16.901Z,99813.00
2022-11-30T04:23:44.926Z,99814.13
2022-11-30T04:26:16.014Z,99816.81
2022-11-30T04:28:44.749Z,99819.50
2022-11-30T04:31:13.101Z,99824.06
2022-11-30T04:33:41.233Z,99813.91
2022-11-30T04:36:18.852Z,99821.53
2022-11-30T04:38:47.027Z,99818.66
2022-11-30T04:41:16.927Z,99818.03
2022-11-30T04:43:45.091Z,99823.22
2022-11-30T04:46:13.210Z,99819.44
2022-11-30T04:48:41.299Z,99821.47
2022-11-30T04:51:10.531Z,99822.63
2022-11-30T04:53:39.207Z,99820.94
2022-11-30T04:56:08.847Z,99823.91
2022-11-30T04:58:39.637Z,99822.78
2022-11-30T05:01:07.790Z,99820.78
2022-11-30T05:03:36.257Z,99832.47
2022-11-30T05:06:05.533Z,99827.75
2022-11-30T05:08:33.634Z,99831.41
2022-11-30T05:11:01.687Z,99824.59
2022-11-30T05:13:29.709Z,99824.00
2022-11-30T05:15:59.248Z,99823.94
2022-11-30T05:18:27.455Z,99834.28
2022-11-30T05:20:55.527Z,99840.91
2022-11-30T05:23:23.720Z,99842.19
2022-11-30T05:25:51.859Z,99848.03
2022-11-30T05:28:20.156Z,99843.44
2022-11-30T05:30:48.401Z,99848.91
2022-11-30T05:33:17.831Z,99850.66
2022-11-30T05:35:45.933Z,99851.47
2022-11-30T05:38:13.973Z,99856.22
2022-11-30T05:40:41.986Z,99867.78
2022-11-30T05:43:10.466Z,99866.34
2022-11-30T05:45:38.512Z,99870.00
2022-11-30T05:48:07.597Z,99860.38
2022-11-30T05:50:37.120Z,99870.66
2022-11-30T05:53:05.177Z,99867.31
2022-11-30T05:55:34.767Z,99873.03
2022-11-30T05:58:03.243Z,99876.69
2022-11-30T06:00:31.785Z,99864.66
2022-11-30T06:02:59.957Z,99858.31
2022-11-30T06:05:28.902Z,99866.88
2022-11-30T06:08:00.863Z,99867.50
2022-11-30T06:10:29.093Z,99869.88
2022-11-30T06:12:57.150Z,99866.72
2022-11-30T06:15:25.453Z,99872.91
2022-11-30T06:17:56.186Z,99880.00
2022-11-30T06:20:24.262Z,99882.06
2022-11-30T06:22:52.813Z,99887.94
2022-11-30T06:25:22.575Z,99888.41
2022-11-30T06:27:50.776Z,99888.91
2022-11-30T06:30:19.271Z,99891.41
2022-11-30T06:32:47.634Z,99889.06
2022-11-30T06:35:15.854Z,99896.81
2022-11-30T06:37:44.160Z,99901.09
2022-11-30T06:40:14.349Z,99889.22
2022-11-30T06:42:44.145Z,99899.50
2022-11-30T06:45:12.474Z,99898.41
2022-11-30T06:47:40.603Z,99896.28
2022-11-30T06:50:09.821Z,99895.22
2022-11-30T06:52:37.882Z,99889.47
2022-11-30T06:55:06.624Z,99888.38
2022-11-30T06:57:35.045Z,99897.91
2022-11-30T07:00:05.994Z,99897.56
2022-11-30T07:02:34.159Z,99903.16
2022-11-30T07:05:02.337Z,99907.78
2022-11-30T07:07:31.958Z,99911.56
2022-11-30T07:10:00.299Z,99909.66
2022-11-30T07:12:28.448Z,99909.34
2022-11-30T07:14:56.639Z,99909.06
2022-11-30T07:17:26.419Z,99914.13
2022-11-30T07:19:54.500Z,99914.44
2022-11-30T07:22:22.574Z,99911.91
2022-11-30T07:25:08.155Z,99911.91
2022-11-30T07:27:36.449Z,99918.22
2022-11-30T07:30:05.365Z,99926.91
2022-11-30T07:32:34.987Z,99924.34
2022-11-30T07:35:03.069Z,99920.25
2022-11-30T07:37:31.093Z,99923.09
2022-11-30T07:39:59.216Z,99916.94
2022-11-30T07:42:27.185Z,99922.97
2022-11-30T07:44:58.713Z,99921.06
2022-11-30T07:47:27.445Z,99926.00
2022-11-30T07:49:57.290Z,99928.69
2022-11-30T07:52:25.550Z,99927.28
2022-11-30T07:54:53.857Z,99928.53
2022-11-30T07:57:21.850Z,99927.09
2022-11-30T07:59:50.266Z,99931.41
2022-11-30T08:02:18.632Z,99928.72
2022-11-30T08:04:47.088Z,99929.81
2022-11-30T08:07:16.743Z,99928.38
2022-11-30T08:09:46.282Z,99928.69
2022-11-30T08:12:14.328Z,99930.59
2022-11-30T08:15:11.531Z,99929.84
2022-11-30T08:17:30.488Z,99938.06
2022-11-30T08:19:58.641Z,99929.19
2022-11-30T08:22:28.398Z,99926.66
2022-11-30T08:24:56.534Z,99933.94
2022-11-30T08:27:24.695Z,99933.63
2022-11-30T08:29:52.835Z,99927.28
2022-11-30T08:32:20.991Z,99928.84
2022-11-30T08:34:49.271Z,99928.72
2022-11-30T08:37:17.451Z,99923.31
2022-11-30T08:39:46.836Z,99925.22
2022-11-30T08:42:14.997Z,99920.59
2022-11-30T08:44:43.069Z,99923.81
2022-11-30T08:47:11.214Z,99913.97
2022-11-30T08:49:39.260Z,99917.00
2022-11-30T08:52:16.988Z,99915.22
2022-11-30T08:54:48.938Z,99915.41
2022-11-30T08:57:18.072Z,99919.53
2022-11-30T08:59:46.218Z,99916.66
2022-11-30T09:02:17.989Z,99918.72
2022-11-30T09:04:48.903Z,99920.13
2022-11-30T09:07:17.653Z,99914.16
2022-11-30T09:09:47.467Z,99918.91
2022-11-30T09:12:15.817Z,99923.03
2022-11-30T09:14:45.146Z,99927.00
2022-11-30T09:17:13.323Z,99915.72
2022-11-30T09:19:41.578Z,99913.38
2022-11-30T09:22:10.295Z,99908.44
2022-11-30T09:24:38.539Z,99909.25
2022-11-30T09:27:08.064Z,99909.84
2022-11-30T09:29:37.522Z,99908.75
2022-11-30T09:32:05.882Z,99905.59
2022-11-30T09:34:33.996Z,99910.50
2022-11-30T09:37:02.057Z,99907.47
2022-11-30T09:39:30.124Z,99904.94
2022-11-30T09:42:25.918Z,99901.13
2022-11-30T09:45:01.726Z,99902.41
2022-11-30T09:47:47.603Z,99894.63
2022-11-30T09:50:20.210Z,99903.53
2022-11-30T09:52:53.084Z,99899.88
2022-11-30T09:55:28.264Z,99900.50
2022-11-30T09:58:03.160Z,99900.81
2022-11-30T10:00:32.076Z,99903.03
2022-11-30T10:03:04.280Z,99902.75
2022-11-30T10:05:47.343Z,99902.41
2022-11-30T10:08:32.628Z,99908.13
2022-11-30T10:11:16.196Z,99910.03
2022-11-30T10:13:57.593Z,99911.63
2022-11-30T10:16:32.784Z,99908.75
2022-11-30T10:19:09.315Z,99909.22
2022-11-30T10:21:59.303Z,99908.91
2022-11-30T10:24:37.982Z,99907.78
2022-11-30T10:27:17.780Z,99906.22
2022-11-30T10:29:47.427Z,99910.00
2022-11-30T10:32:20.767Z,99909.56
2022-11-30T10:34:53.163Z,99900.03
2022-11-30T10:37:24.374Z,99909.53
2022-11-30T10:40:01.014Z,99904.78
2022-11-30T10:42:34.819Z,99909.69
2022-11-30T10:45:09.571Z,99912.56
2022-11-30T10:47:44.899Z,99913.66
2022-11-30T10:50:16.638Z,99916.63
2022-11-30T10:52:47.993Z,99917.75
2022-11-30T10:55:20.939Z,99910.78
2022-11-30T10:57:51.073Z,99912.72
2022-11-30T11:00:21.413Z,99907.81
2022-11-30T11:02:50.858Z,99906.03
2022-11-30T11:05:21.933Z,99900.50
2022-11-30T11:07:53.926Z,99896.84
2022-11-30T11:10:25.586Z,99897.16
2022-11-30T11:12:55.567Z,99899.53
2022-11-30T11:15:27.208Z,99891.31
2022-11-30T11:18:13.658Z,99889.56
2022-11-30T11:20:43.515Z,99884.97
2022-11-30T11:23:23.145Z,99891.31
2022-11-30T11:25:57.643Z,99883.38
2022-11-30T11:28:26.348Z,99880.06
2022-11-30T11:30:58.492Z,99876.25
2022-11-30T11:33:27.947Z,99874.97
2022-11-30T11:35:57.667Z,99875.44
2022-11-30T11:38:28.425Z,99883.69
2022-11-30T11:41:02.636Z,99882.09
2022-11-30T11:43:33.280Z,99891.47
2022-11-30T11:46:13.150Z,99881.00
2022-11-30T11:48:47.876Z,99878.78
2022-11-30T11:51:29.878Z,99885.44
2022-11-30T11:54:00.142Z,99879.41
2022-11-30T11:56:32.021Z,99876.09
2022-11-30T11:59:02.805Z,99878.94
2022-11-30T12:01:45.454Z,99881.16
2022-11-30T12:04:26.182Z,99878.94
2022-11-30T12:06:56.915Z,99886.41
2022-11-30T12:09:30.504Z,99890.19
2022-11-30T12:11:58.778Z,99893.38
2022-11-30T12:14:27.431Z,99900.03
2022-11-30T12:17:10.396Z,99896.38
2022-11-30T12:19:48.241Z,99889.56
2022-11-30T12:22:37.991Z,99890.69
2022-11-30T12:25:22.882Z,99895.44
2022-11-30T12:28:00.380Z,99900.03
2022-11-30T12:30:33.658Z,99895.25
2022-11-30T12:33:15.874Z,99896.53
2022-11-30T12:35:59.147Z,99900.50
2022-11-30T12:38:43.324Z,99903.03
2022-11-30T12:41:26.844Z,99901.91
2022-11-30T12:44:04.820Z,99912.25
2022-11-30T12:46:41.213Z,99919.53
2022-11-30T12:49:28.318Z,99909.56
2022-11-30T12:52:04.007Z,99916.22
2022-11-30T12:54:43.526Z,99916.38
2022-11-30T12:57:18.232Z,99910.66
2022-11-30T12:59:52.490Z,99909.41
2022-11-30T13:02:53.481Z,99914.78
2022-11-30T13:05:31.253Z,99914.94
2022-11-30T13:08:05.596Z,99917.63
2022-11-30T13:10:41.950Z,99927.78
2022-11-30T13:13:15.618Z,99915.56
2022-11-30T13:15:45.731Z,99916.22
2022-11-30T13:18:19.386Z,99915.09
2022-11-30T13:20:54.918Z,99911.44
2022-11-30T13:23:31.701Z,99926.66
2022-11-30T13:26:08.414Z,99925.09
2022-11-30T13:28:59.663Z,99922.69
2022-11-30T13:31:31.391Z,99928.22
2022-11-30T13:34:00.960Z,99931.75
2022-11-30T13:36:36.311Z,99926.19
2022-11-30T13:39:35.279Z,99924.28
2022-11-30T13:42:39.588Z,99919.84
2022-11-30T13:45:32.388Z,99913.97
2022-11-30T13:48:01.453Z,99902.06
2022-11-30T13:50:37.446Z,99907.13
2022-11-30T13:53:22.748Z,99909.47
2022-11-30T13:56:09.089Z,99904.84
2022-11-30T13:58:37.378Z,99904.69
2022-11-30T14:01:27.466Z,99910.72
2022-11-30T14:04:30.859Z,99912.63
2022-11-30T14:07:00.856Z,99910.09
2022-11-30T14:10:08.451Z,99917.69
2022-11-30T14:13:00.097Z,99911.00
2022-11-30T14:15:34.290Z,99915.13
2022-11-30T14:18:21.761Z,99920.50
2022-11-30T14:20:55.430Z,99916.56
2022-11-30T14:23:28.852Z,99918.78
2022-11-30T14:26:02.315Z,99917.03
2022-11-30T14:28:40.261Z,99912.00
2022-11-30T14:31:12.022Z,99917.53
2022-11-30T14:33:45.849Z,99917.50
2022-11-30T14:36:15.364Z,99920.84
2022-11-30T14:38:44.128Z,99919.75
2022-11-30T14:41:24.416Z,99914.22
2022-11-30T14:44:06.453Z,99919.25
2022-11-30T14:46:36.019Z,99921.78
2022-11-30T14:49:16.042Z,99917.31
2022-11-30T14:51:47.467Z,99916.06
2022-11-30T14:54:32.873Z,99911.16
2022-11-30T14:57:09.194Z,99914.97
2022-11-30T14:59:47.229Z,99915.47
2022-11-30T15:02:24.481Z,99921.16
2022-11-30T15:04:55.025Z,99918.16
2022-11-30T15:07:25.245Z,99916.75
2022-11-30T15:09:58.759Z,99914.69
2022-11-30T15:12:27.256Z,99915.78
2022-11-30T15:15:24.577Z,99918.03
2022-11-30T15:17:55.494Z,99915.97
2022-11-30T15:20:30.380Z,99922.13
2022-11-30T15:22:59.638Z,99925.63
2022-11-30T15:25:36.303Z,99919.25
2022-11-30T15:28:05.408Z,99929.56
2022-11-30T15:30:38.617Z,99926.09
2022-11-30T15:33:06.737Z,99925.91
2022-11-30T15:36:05.021Z,99925.25
2022-11-30T15:38:26.316Z,99932.25
2022-11-30T15:41:03.969Z,99925.63
2022-11-30T15:43:38.492Z,99927.81
2022-11-30T15:46:08.892Z,99929.72
2022-11-30T15:48:40.760Z,99934.19
2022-11-30T15:51:23.504Z,99935.63
2022-11-30T15:53:53.321Z,99935.09
2022-11-30T15:56:25.295Z,99940.34
2022-11-30T15:59:03.017Z,99947.97
2022-11-30T16:01:34.247Z,99944.19
2022-11-30T16:04:07.078Z,99949.53
2022-11-30T16:06:46.409Z,99945.91
2022-11-30T16:09:21.336Z,99943.53
2022-11-30T16:11:53.960Z,99952.88
2022-11-30T16:14:22.218Z,99958.38
2022-11-30T16:16:53.892Z,99957.56
2022-11-30T16:19:23.039Z,99960.88
2022-11-30T16:21:51.604Z,99962.00
2022-11-30T16:24:20.412Z,99957.91
2022-11-30T16:26:52.099Z,99961.09
2022-11-30T16:29:20.707Z,99966.75
2022-11-30T16:31:49.367Z,99973.44
2022-11-30T16:34:18.994Z,99965.63
2022-11-30T16:36:47.023Z,99968.97
2022-11-30T16:39:15.176Z,99962.19
2022-11-30T16:41:43.529Z,99964.22
2022-11-30T16:44:14.761Z,99954.88
2022-11-30T16:46:42.984Z,99966.25
2022-11-30T16:49:11.301Z,99961.28
2022-11-30T16:51:42.038Z,99964.59
2022-11-30T16:54:13.302Z,99963.66
2022-11-30T16:56:41.539Z,99963.56
2022-11-30T16:59:14.976Z,99968.81
2022-11-30T17:01:47.516Z,99963.94
2022-11-30T17:04:19.849Z,99966.78
2022-11-30T17:06:51.160Z,99967.59
2022-11-30T17:09:21.679Z,99955.75
2022-11-30T17:11:51.471Z,99959.88
2022-11-30T17:14:20.784Z,99964.63
2022-11-30T17:16:49.227Z,99961.78
2022-11-30T17:19:17.364Z,99964.59
2022-11-30T17:21:45.925Z,99965.19
2022-11-30T17:24:16.088Z,99973.72
2022-11-30T17:26:44.293Z,99973.41
2022-11-30T17:29:12.619Z,99967.44
2022-11-30T17:31:41.441Z,99972.97
2022-11-30T17:34:09.768Z,99976.00
2022-11-30T17:36:37.984Z,99974.31
2022-11-30T17:39:08.105Z,99982.09
2022-11-30T17:41:39.011Z,99981.63
2022-11-30T17:44:07.172Z,99982.78
2022-11-30T17:46:35.413Z,99982.16
2022-11-30T17:49:04.343Z,99986.94
2022-11-30T17:51:32.614Z,99987.28
2022-11-30T17:54:00.833Z,99978.56
2022-11-30T17:56:28.849Z,99981.41
2022-11-30T17:58:58.288Z,99976.97
2022-11-30T18:01:28.438Z,99979.78
2022-11-30T18:03:58.164Z,99981.66
2022-11-30T18:06:26.299Z,99981.16
2022-11-30T18:08:54.626Z,99980.31
2022-11-30T18:11:25.729Z,99985.97
2022-11-30T18:13:55.969Z,99977.63
2022-11-30T18:16:27.886Z,99976.63
2022-11-30T18:18:58.749Z,99976.56
2022-11-30T18:21:29.379Z,99972.44
2022-11-30T18:23:59.016Z,99978.31
2022-11-30T18:26:28.735Z,99970.84
2022-11-30T18:28:58.662Z,99982.56
2022-11-30T18:31:28.711Z,99970.94
2022-11-30T18:33:57.609Z,99973.03
2022-11-30T18:36:26.328Z,99973.25
2022-11-30T18:38:55.172Z,99978.06
2022-11-30T18:41:26.057Z,99976.72
2022-11-30T18:43:54.876Z,99973.19
2022-11-30T18:46:23.221Z,99978.41
2022-11-30T18:48:54.751Z,99977.91
2022-11-30T18:51:25.328Z,99981.50
2022-11-30T18:53:57.891Z,99978.47
2022-11-30T18:56:27.156Z,99977.06
2022-11-30T18:58:56.840Z,99990.19
2022-11-30T19:01:25.472Z,99989.19
2022-11-30T19:03:56.836Z,99977.66
2022-11-30T19:06:28.434Z,99977.91
2022-11-30T19:08:57.634Z,99986.50
2022-11-30T19:11:26.204Z,99992.56
2022-11-30T19:13:55.659Z,99981.97
2022-11-30T19:16:25.045Z,99995.41
2022-11-30T19:18:55.172Z,99984.09
2022-11-30T19:21:24.208Z,99994.78
2022-11-30T19:23:54.363Z,99988.75
2022-11-30T19:26:22.493Z,99992.94
2022-11-30T19:28:50.688Z,99994.38
2022-11-30T19:31:20.847Z,99997.31
2022-11-30T19:33:51.210Z,100000.53
2022-11-30T19:36:30.597Z,100003.53
2022-11-30T19:39:00.422Z,100004.31
2022-11-30T19:41:29.611Z,100001.25
2022-11-30T19:44:03.613Z,99998.84
2022-11-30T19:46:34.034Z,100003.28
2022-11-30T19:49:02.775Z,99992.97
2022-11-30T19:51:32.831Z,100001.44
2022-11-30T19:54:01.346Z,100008.28
2022-11-30T19:56:31.474Z,99997.66
2022-11-30T19:59:04.620Z,99998.56
2022-11-30T20:01:34.548Z,100005.84
2022-11-30T20:04:03.435Z,100010.22
2022-11-30T20:06:35.947Z,100003.16
2022-11-30T20:09:05.138Z,100005.66
2022-11-30T20:11:33.392Z,100007.88
2022-11-30T20:14:01.499Z,100009.22
2022-11-30T20:16:29.904Z,100005.03
2022-11-30T20:19:00.918Z,100009.00
2022-11-30T20:21:31.054Z,100004.84
2022-11-30T20:24:06.148Z,100005.66
2022-11-30T20:26:36.489Z,100008.34
2022-11-30T20:29:06.774Z,100001.66
2022-11-30T20:31:36.654Z,100002.84
2022-11-30T20:34:05.228Z,100006.81
2022-11-30T20:36:33.392Z,100007.44
2022-11-30T20:39:03.006Z,100011.91
2022-11-30T20:41:31.119Z,100009.50
2022-11-30T20:43:59.369Z,100013.06
2022-11-30T20:46:30.009Z,100013.06
2022-11-30T20:49:00.039Z,100012.50
2022-11-30T20:51:32.024Z,100010.22
2022-11-30T20:54:03.442Z,100014.03
2022-11-30T20:56:31.754Z,100018.81
2022-11-30T20:59:03.291Z,100009.69
2022-11-30T21:01:31.797Z,100013.09
2022-11-30T21:04:00.921Z,100021.69
2022-11-30T21:06:30.466Z,100013.31
2022-11-30T21:08:59.205Z,100014.59
2022-11-30T21:11:31.306Z,100017.03
2022-11-30T21:13:59.638Z,100015.63
2022-11-30T21:16:29.953Z,100018.00
2022-11-30T21:18:59.493Z,100019.72
2022-11-30T21:21:30.673Z,100017.69
2022-11-30T21:24:00.347Z,100021.00
2022-11-30T21:26:31.791Z,100018.63
2022-11-30T21:29:05.722Z,100027.00
2022-11-30T21:31:34.930Z,100027.94
2022-11-30T21:34:03.229Z,100023.13
2022-11-30T21:36:31.404Z,100018.25
2022-11-30T21:39:05.449Z,100009.84
2022-11-30T21:41:36.542Z,100019.91
2022-11-30T21:44:05.447Z,100015.00
2022-11-30T21:46:34.061Z,100022.06
2022-11-30T21:49:02.510Z,100017.69
2022-11-30T21:51:32.143Z,100019.16
2022-11-30T21:54:02.055Z,100024.69
2022-11-30T21:56:33.205Z,100029.34
2022-11-30T21:59:04.642Z,100022.97
2022-11-30T22:01:35.184Z,100024.06
2022-11-30T22:04:05.921Z,100024.69
2022-11-30T22:06:36.189Z,100028.00
2022-11-30T22:09:08.888Z,100024.06
2022-11-30T22:11:39.089Z,100035.19
2022-11-30T22:14:11.876Z,100022.66
2022-11-30T22:16:40.218Z,100022.78
2022-11-30T22:19:08.889Z,100014.88
2022-11-30T22:21:37.240Z,100011.84
2022-11-30T22:24:07.180Z,100018.75
2022-11-30T22:26:37.017Z,100019.84
2022-11-30T22:29:07.788Z,100021.63
2022-11-30T22:31:39.500Z,100018.69
2022-11-30T22:34:08.502Z,100017.47
2022-11-30T22:36:38.134Z,100012.53
2022-11-30T22:39:09.359Z,100017.69
2022-11-30T22:41:37.794Z,100007.88
2022-11-30T22:44:06.317Z,100002.28
2022-11-30T22:46:38.044Z,100008.78
2022-11-30T22:49:09.174Z,100005.97
2022-11-30T22:51:38.806Z,100010.75
2022-11-30T22:54:07.728Z,100007.25
2022-11-30T22:56:37.618Z,100003.78
2022-11-30T22:59:06.705Z,100001.88
2022-11-30T23:01:38.052Z,99994.53
2022-11-30T23:04:09.299Z,99996.00
2022-11-30T23:06:38.161Z,99983.28
2022-11-30T23:09:08.728Z,99989.66
2022-11-30T23:11:36.938Z,99986.03
2022-11-30T23:14:08.286Z,99986.53
2022-11-30T23:16:38.618Z,99972.59
2022-11-30T23:19:07.628Z,99984.94
2022-11-30T23:21:41.478Z,99980.31
2022-11-30T23:24:13.657Z,99989.97
2022-11-30T23:26:42.472Z,99983.66
2022-11-30T23:29:13.148Z,99984.47
2022-11-30T23:31:44.993Z,99981.28
2022-11-30T23:34:16.146Z,99981.28
2022-11-30T23:36:44.415Z,99976.50
2022-11-30T23:39:15.507Z,99972.34
2022-11-30T23:41:43.890Z,99981.50
2022-11-30T23:44:12.676Z,99974.78
2022-11-30T23:46:42.639Z,99972.16
2022-11-30T23:49:11.026Z,99967.66
2022-11-30T23:51:39.214Z,99973.81
2022-11-30T23:54:07.504Z,99967.66
2022-11-30T23:56:35.671Z,99963.47
2022-11-30T23:59:03.877Z,99969.19
